Time;durP1;ratioP1;P1;durP2;ratioP2;P2;SDS_P1;SDS_P2;PMS_P1;PMS_P2;Temp;Humidity;BMP_temperature;BMP_pressure;BME280_temperature;BME280_humidity;BME280_pressure;Samples;Min_cycle;Max_cycle;Signal;HPM_P1;HPM_P2
2021/09/05 00:00:33;;;;;;;12.80;7.67;;;12.80;99.90;;;;;;5114385;28;20250;-85
2021/09/05 00:02:59;;;;;;;10.10;6.87;;;12.80;99.90;;;;;;5114527;28;20175;-86
2021/09/05 00:05:24;;;;;;;12.50;6.00;;;12.70;99.90;;;;;;5114583;28;20174;-83
2021/09/05 00:07:50;;;;;;;9.07;7.00;;;12.80;99.90;;;;;;5114478;28;20208;-86
2021/09/05 00:10:15;;;;;;;11.53;6.77;;;12.70;99.90;;;;;;5112967;28;20238;-86
2021/09/05 00:12:42;;;;;;;10.40;6.87;;;12.60;99.90;;;;;;5114064;28;20175;-86
2021/09/05 00:15:09;;;;;;;10.97;6.60;;;12.70;99.90;;;;;;5114372;28;20552;-85
2021/09/05 00:17:35;;;;;;;10.80;6.10;;;12.60;99.90;;;;;;5114361;28;20428;-87
2021/09/05 00:20:01;;;;;;;11.20;6.87;;;12.60;99.90;;;;;;5114303;28;20424;-87
2021/09/05 00:22:26;;;;;;;10.50;6.80;;;12.60;99.90;;;;;;5114480;28;20215;-88
2021/09/05 00:24:52;;;;;;;12.90;7.30;;;12.60;99.90;;;;;;5113207;28;20179;-87
2021/09/05 00:27:17;;;;;;;9.77;6.57;;;12.50;99.90;;;;;;5114191;28;20178;-89
2021/09/05 00:29:43;;;;;;;11.40;7.13;;;12.50;99.90;;;;;;5113847;28;20193;-86
2021/09/05 00:32:09;;;;;;;10.73;6.27;;;12.40;99.90;;;;;;5113833;28;20541;-84
2021/09/05 00:34:34;;;;;;;10.80;5.87;;;12.40;99.90;;;;;;5112488;28;20216;-85
2021/09/05 00:37:00;;;;;;;10.13;6.53;;;12.40;99.90;;;;;;5113766;28;20177;-85
2021/09/05 00:39:25;;;;;;;8.50;6.27;;;12.40;99.90;;;;;;5113847;28;20187;-86
2021/09/05 00:41:51;;;;;;;11.37;7.67;;;12.30;99.90;;;;;;5113758;28;20167;-86
2021/09/05 00:44:17;;;;;;;10.00;6.83;;;12.30;99.90;;;;;;5113384;28;20162;-85
2021/09/05 00:46:43;;;;;;;10.10;6.77;;;12.40;99.90;;;;;;5113586;28;20174;-86
2021/09/05 00:49:10;;;;;;;11.60;7.33;;;12.40;99.90;;;;;;5113751;28;20164;-84
2021/09/05 00:51:38;;;;;;;10.90;6.50;;;12.30;99.90;;;;;;5113552;27;20473;-85
2021/09/05 00:54:05;;;;;;;10.67;6.40;;;12.20;99.90;;;;;;5113436;28;20403;-85
2021/09/05 00:56:34;;;;;;;10.00;7.47;;;12.20;99.90;;;;;;5113540;28;20420;-85
2021/09/05 00:59:07;;;;;;;9.77;6.10;;;12.20;99.90;;;;;;5113069;28;20961;-84
2021/09/05 01:01:37;;;;;;;10.20;6.63;;;12.10;99.90;;;;;;5113233;28;20839;-84
2021/09/05 01:04:03;;;;;;;9.13;6.07;;;12.10;99.90;;;;;;5113455;28;20441;-84
2021/09/05 01:06:29;;;;;;;8.10;5.80;;;12.00;99.90;;;;;;5112931;28;20423;-84
2021/09/05 01:08:56;;;;;;;9.70;5.83;;;12.00;99.90;;;;;;5113110;28;20422;-85
2021/09/05 01:11:23;;;;;;;10.10;5.90;;;12.00;99.90;;;;;;5112083;28;20902;-84
2021/09/05 01:13:49;;;;;;;8.03;5.50;;;12.00;99.90;;;;;;5112927;28;20422;-85
2021/09/05 01:16:24;;;;;;;12.33;6.10;;;11.90;99.90;;;;;;5113286;28;20511;-86
2021/09/05 01:18:50;;;;;;;9.37;5.70;;;12.00;99.90;;;;;;5112046;28;20251;-84
2021/09/05 01:21:16;;;;;;;9.33;5.60;;;12.00;99.90;;;;;;5113195;28;20476;-85
2021/09/05 01:23:41;;;;;;;9.50;5.70;;;11.80;99.90;;;;;;5113194;28;20657;-84
2021/09/05 01:26:08;;;;;;;8.90;5.27;;;11.80;99.90;;;;;;5111954;28;20173;-88
2021/09/05 01:28:33;;;;;;;9.20;5.60;;;11.70;99.90;;;;;;5113038;28;20279;-84
2021/09/05 01:30:59;;;;;;;8.10;4.97;;;11.90;99.90;;;;;;5112129;28;20569;-83
2021/09/05 01:33:24;;;;;;;13.60;6.63;;;11.80;99.90;;;;;;5113423;28;20176;-86
2021/09/05 01:35:50;;;;;;;10.07;5.80;;;11.90;99.90;;;;;;5113314;28;20184;-84
2021/09/05 01:38:16;;;;;;;10.43;5.30;;;11.70;99.90;;;;;;5113345;28;20246;-84
2021/09/05 01:40:42;;;;;;;7.83;4.90;;;11.70;99.90;;;;;;5112350;28;20528;-84
2021/09/05 01:43:07;;;;;;;9.50;4.53;;;11.70;99.90;;;;;;5112868;28;20628;-83
2021/09/05 01:45:33;;;;;;;7.77;5.90;;;11.70;99.90;;;;;;5113198;28;20535;-84
2021/09/05 01:47:58;;;;;;;9.93;5.30;;;11.60;99.90;;;;;;5113085;28;20197;-87
2021/09/05 01:50:24;;;;;;;7.60;5.47;;;11.60;99.90;;;;;;5112880;28;20243;-84
2021/09/05 01:52:50;;;;;;;8.20;5.00;;;11.50;99.90;;;;;;5112989;28;20177;-84
2021/09/05 01:55:15;;;;;;;11.10;5.57;;;11.50;99.90;;;;;;5111858;28;20178;-83
2021/09/05 01:57:41;;;;;;;7.50;4.63;;;11.40;99.90;;;;;;5112688;28;20253;-83
2021/09/05 02:00:07;;;;;;;9.20;5.27;;;11.40;99.90;;;;;;5112927;28;20257;-85
2021/09/05 02:02:33;;;;;;;9.93;5.40;;;11.40;99.90;;;;;;5113071;28;20175;-84
2021/09/05 02:04:58;;;;;;;9.70;4.93;;;11.40;99.90;;;;;;5112970;28;20761;-83
2021/09/05 02:07:24;;;;;;;7.50;5.63;;;11.30;99.90;;;;;;5112843;28;20183;-83
2021/09/05 02:09:49;;;;;;;9.20;4.10;;;11.20;99.90;;;;;;5112583;28;20222;-83
2021/09/05 02:12:15;;;;;;;6.77;3.80;;;11.30;99.90;;;;;;5111462;28;20184;-85
2021/09/05 02:14:41;;;;;;;8.23;5.70;;;11.40;99.90;;;;;;5116296;28;20196;-85
2021/09/05 02:17:07;;;;;;;6.10;3.90;;;11.30;99.90;;;;;;5116760;28;20183;-83
2021/09/05 02:19:33;;;;;;;8.40;4.50;;;11.20;99.90;;;;;;5116665;28;20172;-84
2021/09/05 02:21:59;;;;;;;10.00;4.30;;;11.30;99.90;;;;;;5116768;28;20856;-84
2021/09/05 02:24:25;;;;;;;6.83;4.43;;;11.30;99.90;;;;;;5116587;28;20826;-84
2021/09/05 02:26:51;;;;;;;7.77;4.97;;;11.30;99.90;;;;;;5115280;28;20435;-83
2021/09/05 02:29:16;;;;;;;6.43;4.27;;;11.20;99.90;;;;;;5116010;28;20250;-83
2021/09/05 02:31:42;;;;;;;9.43;5.53;;;11.30;99.90;;;;;;5116104;28;20219;-83
2021/09/05 02:34:07;;;;;;;7.27;5.00;;;11.30;99.90;;;;;;5116131;28;20173;-83
2021/09/05 02:36:33;;;;;;;9.20;4.57;;;11.30;99.90;;;;;;5116115;28;20167;-84
2021/09/05 02:38:59;;;;;;;8.53;4.00;;;11.20;99.90;;;;;;5115987;28;20172;-85
2021/09/05 02:41:24;;;;;;;5.93;3.93;;;11.20;99.90;;;;;;5114794;28;20560;-83
2021/09/05 02:43:50;;;;;;;8.20;5.27;;;11.10;99.90;;;;;;5114338;28;20179;-83
2021/09/05 02:46:15;;;;;;;6.80;4.10;;;11.20;99.90;;;;;;5116009;28;20169;-84
2021/09/05 02:48:41;;;;;;;6.40;4.30;;;11.10;99.90;;;;;;5115974;28;20206;-85
2021/09/05 02:51:07;;;;;;;9.33;4.27;;;11.10;99.90;;;;;;5115780;28;20257;-84
2021/09/05 02:53:32;;;;;;;8.40;4.57;;;11.10;99.90;;;;;;5125042;28;20169;-83
2021/09/05 02:55:58;;;;;;;10.53;4.40;;;10.90;99.90;;;;;;5128292;28;20183;-83
2021/09/05 02:58:23;;;;;;;5.80;3.50;;;10.90;99.90;;;;;;5125480;28;20167;-84
2021/09/05 03:00:49;;;;;;;7.80;4.40;;;10.90;99.90;;;;;;5121843;28;20180;-84
2021/09/05 03:03:14;;;;;;;10.70;4.80;;;10.90;99.90;;;;;;5114574;28;20170;-85
2021/09/05 03:05:40;;;;;;;6.17;3.43;;;10.90;99.90;;;;;;5115779;28;20254;-86
2021/09/05 03:08:05;;;;;;;7.80;4.60;;;10.90;99.90;;;;;;5114568;28;20539;-85
2021/09/05 03:10:31;;;;;;;4.63;2.73;;;10.90;99.90;;;;;;5115506;28;20722;-84
2021/09/05 03:12:57;;;;;;;8.27;4.57;;;10.80;99.90;;;;;;5114021;28;20186;-85
2021/09/05 03:15:22;;;;;;;7.17;4.20;;;10.80;99.90;;;;;;5114288;28;20176;-86
2021/09/05 03:17:49;;;;;;;9.00;3.60;;;10.90;99.90;;;;;;5115633;28;20179;-83
2021/09/05 03:20:14;;;;;;;6.13;3.10;;;10.70;99.90;;;;;;5115454;28;20175;-86
2021/09/05 03:22:40;;;;;;;13.63;4.17;;;10.70;99.90;;;;;;5114136;28;20924;-85
2021/09/05 03:25:06;;;;;;;6.63;3.40;;;10.60;99.90;;;;;;5115061;28;20173;-84
2021/09/05 03:27:32;;;;;;;7.70;4.23;;;10.70;99.90;;;;;;5114982;28;20168;-87
2021/09/05 03:29:57;;;;;;;7.00;3.70;;;10.60;99.90;;;;;;5115279;28;20961;-83
2021/09/05 03:32:23;;;;;;;10.70;4.00;;;10.60;99.90;;;;;;5115184;28;20627;-84
2021/09/05 03:34:48;;;;;;;7.30;3.80;;;10.60;99.90;;;;;;5115108;28;20176;-86
2021/09/05 03:37:14;;;;;;;7.97;3.80;;;10.60;99.90;;;;;;5113920;28;20179;-84
2021/09/05 03:39:39;;;;;;;7.00;4.00;;;10.50;99.90;;;;;;5113943;28;20640;-84
2021/09/05 03:42:05;;;;;;;7.77;3.60;;;10.60;99.90;;;;;;5114820;28;20278;-84
2021/09/05 03:44:31;;;;;;;6.97;3.73;;;10.60;99.90;;;;;;5115064;28;20292;-83
2021/09/05 03:46:56;;;;;;;6.80;3.90;;;10.60;99.90;;;;;;5114822;28;20169;-87
2021/09/05 03:49:22;;;;;;;6.83;4.30;;;10.60;99.90;;;;;;5113759;28;20615;-84
2021/09/05 03:51:47;;;;;;;7.17;3.40;;;10.60;99.90;;;;;;5114858;28;20211;-83
2021/09/05 03:54:13;;;;;;;7.67;3.50;;;10.50;99.90;;;;;;5113443;28;20167;-82
2021/09/05 03:56:39;;;;;;;5.03;3.27;;;10.60;99.90;;;;;;5113210;28;20176;-84
2021/09/05 03:59:04;;;;;;;6.60;3.57;;;10.60;99.90;;;;;;5114302;28;20171;-86
2021/09/05 04:01:31;;;;;;;8.43;4.40;;;10.40;99.90;;;;;;5114639;28;20172;-83
2021/09/05 04:03:56;;;;;;;5.13;3.67;;;10.50;99.90;;;;;;5114609;28;20175;-83
2021/09/05 04:06:22;;;;;;;8.67;4.30;;;10.40;99.90;;;;;;5113256;28;20436;-84
2021/09/05 04:08:49;;;;;;;6.57;3.63;;;10.30;99.90;;;;;;5114323;28;20172;-85
2021/09/05 04:11:15;;;;;;;9.53;4.70;;;10.40;99.90;;;;;;5114393;28;20203;-83
2021/09/05 04:13:41;;;;;;;5.70;3.70;;;10.40;99.90;;;;;;5112834;28;20778;-85
2021/09/05 04:16:07;;;;;;;9.57;3.33;;;10.30;99.90;;;;;;5114294;28;20429;-83
2021/09/05 04:18:32;;;;;;;8.30;4.50;;;10.30;99.90;;;;;;5114281;28;20172;-86
2021/09/05 04:20:58;;;;;;;9.23;3.90;;;10.30;99.90;;;;;;5114180;28;20192;-83
2021/09/05 04:23:24;;;;;;;7.70;3.50;;;10.30;99.90;;;;;;5114219;28;20171;-84
2021/09/05 04:25:50;;;;;;;7.93;4.10;;;10.30;99.90;;;;;;5114154;28;20203;-83
2021/09/05 04:28:16;;;;;;;8.00;4.70;;;10.30;99.90;;;;;;5113743;28;20471;-84
2021/09/05 04:30:42;;;;;;;8.90;4.67;;;10.30;99.90;;;;;;5112743;28;20306;-84
2021/09/05 04:33:08;;;;;;;7.23;4.33;;;10.40;99.90;;;;;;5114079;28;20176;-86
2021/09/05 04:35:33;;;;;;;7.57;4.33;;;10.30;99.90;;;;;;5113395;28;20176;-83
2021/09/05 04:37:59;;;;;;;5.87;4.20;;;10.30;99.90;;;;;;5113917;28;20408;-85
2021/09/05 04:40:24;;;;;;;9.17;3.67;;;10.40;99.90;;;;;;5114106;28;20632;-85
2021/09/05 04:42:50;;;;;;;8.33;4.00;;;10.30;99.90;;;;;;5112294;28;20266;-84
2021/09/05 04:45:15;;;;;;;6.00;3.50;;;10.30;99.90;;;;;;5113979;28;20569;-85
2021/09/05 04:47:42;;;;;;;5.20;3.60;;;10.40;99.90;;;;;;5113823;28;20172;-84
2021/09/05 04:50:08;;;;;;;7.53;3.83;;;10.30;99.90;;;;;;5113597;27;20212;-88
2021/09/05 04:52:33;;;;;;;6.33;3.33;;;10.30;99.90;;;;;;5114051;28;20410;-84
2021/09/05 04:54:59;;;;;;;6.67;3.70;;;10.30;99.90;;;;;;5114100;28;20409;-84
2021/09/05 04:57:25;;;;;;;6.87;3.97;;;10.30;99.90;;;;;;5113692;28;20650;-86
2021/09/05 04:59:50;;;;;;;8.50;4.47;;;10.30;99.90;;;;;;5114148;28;20176;-88
2021/09/05 05:02:16;;;;;;;5.03;3.37;;;10.40;99.90;;;;;;5114011;28;20180;-85
2021/09/05 05:04:41;;;;;;;5.60;3.40;;;10.30;99.90;;;;;;5114054;28;20250;-87
2021/09/05 05:07:08;;;;;;;7.33;4.30;;;10.40;99.90;;;;;;5113806;28;20205;-83
2021/09/05 05:09:33;;;;;;;10.47;3.33;;;10.40;99.90;;;;;;5113635;28;20215;-85
2021/09/05 05:11:59;;;;;;;7.27;3.20;;;10.40;99.90;;;;;;5113146;28;20474;-83
2021/09/05 05:14:24;;;;;;;7.63;4.17;;;10.50;99.90;;;;;;5113704;28;20624;-84
2021/09/05 05:16:50;;;;;;;6.50;3.73;;;10.40;99.90;;;;;;5113368;28;20172;-88
2021/09/05 05:19:15;;;;;;;5.03;3.10;;;10.50;99.90;;;;;;5113317;28;20224;-83
2021/09/05 05:21:41;;;;;;;5.83;3.60;;;10.50;99.90;;;;;;5113394;28;20684;-83
2021/09/05 05:24:07;;;;;;;7.60;3.70;;;10.50;99.90;;;;;;5113290;28;20655;-82
2021/09/05 05:26:33;;;;;;;6.70;3.40;;;10.60;99.90;;;;;;5112998;28;20406;-86
2021/09/05 05:28:59;;;;;;;6.00;3.40;;;10.60;99.90;;;;;;5113466;28;20180;-85
2021/09/05 05:31:24;;;;;;;7.60;4.60;;;10.60;99.90;;;;;;5113253;28;20212;-85
2021/09/05 05:33:50;;;;;;;6.07;3.33;;;10.70;99.90;;;;;;5113412;28;20191;-83
2021/09/05 05:36:15;;;;;;;7.80;4.00;;;10.80;99.90;;;;;;5113749;28;20197;-89
2021/09/05 05:38:42;;;;;;;6.87;4.37;;;10.80;99.90;;;;;;5113515;28;20639;-86
2021/09/05 05:41:08;;;;;;;8.33;3.10;;;11.00;99.90;;;;;;5113617;28;20565;-82
2021/09/05 05:43:36;;;;;;;7.60;3.83;;;11.00;99.90;;;;;;5113171;28;20410;-82
2021/09/05 05:46:02;;;;;;;9.00;3.17;;;11.20;99.90;;;;;;5113500;28;20823;-84
2021/09/05 05:48:28;;;;;;;6.03;3.53;;;11.30;99.90;;;;;;5116572;28;20894;-82
2021/09/05 05:50:53;;;;;;;5.30;3.33;;;11.40;99.90;;;;;;5116026;28;20482;-82
2021/09/05 05:53:22;;;;;;;3.70;2.10;;;11.70;99.90;;;;;;5117417;28;20246;-84
2021/09/05 05:55:47;;;;;;;4.63;2.53;;;12.00;99.90;;;;;;5117245;28;20262;-82
2021/09/05 05:58:13;;;;;;;4.53;2.27;;;12.30;99.90;;;;;;5115842;28;20455;-88
2021/09/05 06:00:39;;;;;;;4.40;2.40;;;12.30;99.90;;;;;;5116128;28;20174;-83
2021/09/05 06:03:08;;;;;;;5.67;2.60;;;12.20;99.90;;;;;;5117231;28;20178;-87
2021/09/05 06:05:34;;;;;;;5.30;3.13;;;12.50;99.90;;;;;;5117284;28;20417;-83
2021/09/05 06:08:01;;;;;;;3.27;1.27;;;13.50;99.90;;;;;;5117263;27;20498;-83
2021/09/05 06:10:27;;;;;;;4.30;1.80;;;13.70;99.90;;;;;;5116755;28;20226;-84
2021/09/05 06:12:53;;;;;;;6.67;3.20;;;14.20;99.90;;;;;;5116695;28;20438;-83
2021/09/05 06:15:18;;;;;;;7.37;2.07;;;15.80;99.90;;;;;;5116956;28;20525;-86
2021/09/05 06:17:44;;;;;;;4.63;2.40;;;17.50;99.90;;;;;;5115649;28;20184;-83
2021/09/05 06:20:10;;;;;;;3.57;1.80;;;19.00;99.90;;;;;;5117132;28;20642;-83
2021/09/05 06:22:36;;;;;;;5.80;2.27;;;19.40;99.90;;;;;;5115768;28;20176;-84
2021/09/05 06:25:02;;;;;;;3.83;1.90;;;19.50;99.90;;;;;;5116865;28;20458;-85
2021/09/05 06:27:27;;;;;;;4.13;2.43;;;20.20;99.90;;;;;;5116432;28;20171;-84
2021/09/05 06:29:53;;;;;;;12.03;2.43;;;20.20;99.90;;;;;;5116473;28;20199;-87
2021/09/05 06:32:18;;;;;;;5.30;2.20;;;20.60;99.90;;;;;;5115292;28;20178;-86
2021/09/05 06:34:44;;;;;;;3.33;2.30;;;21.30;99.90;;;;;;5116464;28;20170;-86
2021/09/05 06:37:09;;;;;;;4.90;2.20;;;21.00;99.90;;;;;;5116494;28;20170;-85
2021/09/05 06:39:35;;;;;;;3.43;1.67;;;21.90;99.90;;;;;;5116423;28;20173;-86
2021/09/05 06:42:00;;;;;;;4.37;2.03;;;21.70;99.90;;;;;;5115980;28;20170;-88
2021/09/05 06:44:26;;;;;;;5.00;1.73;;;21.60;99.90;;;;;;5116239;28;20616;-86
2021/09/05 06:46:52;;;;;;;2.70;1.53;;;21.90;99.90;;;;;;5116140;28;20178;-85
2021/09/05 06:49:18;;;;;;;2.63;1.77;;;22.20;99.90;;;;;;5116165;28;20172;-86
2021/09/05 06:51:43;;;;;;;3.87;1.10;;;22.20;99.90;;;;;;5115794;27;20579;-85
2021/09/05 06:54:09;;;;;;;4.40;1.53;;;22.50;99.90;;;;;;5115930;28;20254;-85
2021/09/05 06:56:35;;;;;;;3.87;1.97;;;22.10;99.90;;;;;;5115479;28;20607;-86
2021/09/05 06:59:00;;;;;;;2.70;1.47;;;22.60;99.90;;;;;;5115280;28;20174;-88
2021/09/05 07:01:26;;;;;;;3.70;1.70;;;23.00;99.90;;;;;;5116026;28;20252;-88
2021/09/05 07:03:51;;;;;;;2.67;1.60;;;23.50;99.90;;;;;;5115700;28;20183;-85
2021/09/05 07:06:17;;;;;;;4.27;2.53;;;22.90;99.90;;;;;;5115888;28;20599;-88
2021/09/05 07:08:42;;;;;;;2.63;1.37;;;23.00;99.90;;;;;;5115735;28;20229;-85
2021/09/05 07:11:08;;;;;;;3.60;2.50;;;23.40;98.70;;;;;;5115260;28;20265;-85
2021/09/05 07:13:34;;;;;;;4.13;2.60;;;23.10;99.90;;;;;;5115424;28;20260;-86
2021/09/05 07:15:59;;;;;;;3.13;1.63;;;23.40;97.70;;;;;;5114210;28;20641;-85
2021/09/05 07:18:25;;;;;;;5.70;2.00;;;23.60;99.80;;;;;;5115350;28;20172;-85
2021/09/05 07:20:51;;;;;;;4.63;2.10;;;24.10;97.20;;;;;;5114061;28;20171;-86
2021/09/05 07:23:16;;;;;;;3.63;2.23;;;24.00;98.20;;;;;;5115331;28;20497;-87
2021/09/05 07:25:42;;;;;;;3.00;1.93;;;24.00;95.60;;;;;;5115210;28;20410;-86
2021/09/05 07:28:08;;;;;;;3.00;1.63;;;24.20;95.50;;;;;;5114811;28;20172;-84
2021/09/05 07:30:33;;;;;;;4.10;2.43;;;24.20;93.60;;;;;;5115046;28;20207;-87
2021/09/05 07:32:59;;;;;;;3.90;1.73;;;24.10;94.10;;;;;;5115115;28;20168;-86
2021/09/05 07:35:25;;;;;;;2.77;2.20;;;24.50;97.20;;;;;;5115113;28;20223;-85
2021/09/05 07:37:50;;;;;;;3.70;1.93;;;24.40;94.00;;;;;;5115029;28;20226;-87
2021/09/05 07:40:18;;;;;;;2.30;1.60;;;25.00;91.70;;;;;;5114953;28;20164;-86
2021/09/05 07:42:45;;;;;;;3.40;1.43;;;24.70;92.00;;;;;;5114631;28;20164;-86
2021/09/05 07:45:11;;;;;;;3.93;1.77;;;24.80;95.40;;;;;;5114946;28;20409;-87
2021/09/05 07:47:37;;;;;;;4.87;1.60;;;25.10;91.20;;;;;;5113508;28;20410;-86
2021/09/05 07:50:03;;;;;;;2.93;2.10;;;25.60;90.00;;;;;;5114781;28;20409;-86
2021/09/05 07:52:29;;;;;;;3.60;1.77;;;24.70;91.70;;;;;;5115401;28;20190;-89
2021/09/05 07:54:55;;;;;;;2.90;1.73;;;25.10;91.30;;;;;;5115328;28;20409;-89
2021/09/05 07:57:20;;;;;;;4.00;2.37;;;24.80;91.30;;;;;;5114799;28;20203;-90
2021/09/05 07:59:46;;;;;;;2.60;1.70;;;25.50;89.50;;;;;;5113689;28;20172;-91
2021/09/05 08:02:11;;;;;;;3.60;1.80;;;25.70;90.10;;;;;;5113808;28;20206;-88
2021/09/05 08:04:37;;;;;;;3.70;1.83;;;25.60;90.80;;;;;;5114087;28;20187;-91
2021/09/05 08:07:02;;;;;;;3.10;2.07;;;25.50;90.30;;;;;;5115079;28;20172;-89
2021/09/05 08:09:28;;;;;;;2.30;1.40;;;25.60;88.20;;;;;;5115202;28;20219;-91
2021/09/05 08:11:54;;;;;;;2.63;1.80;;;26.30;87.00;;;;;;5113562;28;20160;-88
2021/09/05 08:14:19;;;;;;;2.97;2.03;;;26.40;87.00;;;;;;5114914;28;20248;-91
2021/09/05 08:16:45;;;;;;;3.80;1.70;;;26.00;86.70;;;;;;5114245;28;20259;-89
2021/09/05 08:19:10;;;;;;;3.70;1.90;;;26.30;87.60;;;;;;5114052;28;20186;-92
2021/09/05 08:21:36;;;;;;;4.23;2.03;;;26.40;86.60;;;;;;5115288;28;20235;-91
2021/09/05 08:24:01;;;;;;;3.10;1.67;;;26.40;79.00;;;;;;5113979;28;20199;-93
2021/09/05 08:26:27;;;;;;;3.37;1.67;;;26.80;85.90;;;;;;5114523;28;20583;-92
2021/09/05 08:28:53;;;;;;;2.57;1.70;;;26.70;82.50;;;;;;5113711;28;20172;-91
2021/09/05 08:31:19;;;;;;;3.53;1.70;;;26.80;82.30;;;;;;5113598;28;20195;-91
2021/09/05 08:33:45;;;;;;;3.73;1.57;;;26.90;83.80;;;;;;5112906;28;20183;-87
2021/09/05 08:36:10;;;;;;;3.40;2.07;;;27.00;84.00;;;;;;5114122;28;20168;-89
2021/09/05 08:38:36;;;;;;;2.70;1.83;;;26.80;82.20;;;;;;5114556;28;20497;-90
2021/09/05 08:41:02;;;;;;;3.13;1.70;;;26.80;83.50;;;;;;5114214;28;20525;-91
2021/09/05 08:43:28;;;;;;;2.80;2.27;;;26.90;82.10;;;;;;5113717;28;20417;-92
2021/09/05 08:45:54;;;;;;;1.80;1.40;;;26.80;79.20;;;;;;5114723;28;20172;-92
2021/09/05 08:48:21;;;;;;;4.37;3.13;;;27.00;81.70;;;;;;5114591;28;20164;-93
2021/09/05 08:50:49;;;;;;;3.53;2.33;;;26.50;78.50;;;;;;5114534;28;20210;-88
2021/09/05 08:53:16;;;;;;;3.53;2.47;;;27.00;81.20;;;;;;5113346;28;20771;-89
2021/09/05 08:55:43;;;;;;;5.00;2.20;;;26.80;79.50;;;;;;5114622;28;20923;-90
2021/09/05 08:58:09;;;;;;;4.80;2.43;;;27.00;78.40;;;;;;5113035;28;20398;-89
2021/09/05 09:00:36;;;;;;;3.63;2.07;;;27.60;83.00;;;;;;5113292;28;20457;-87
2021/09/05 09:03:01;;;;;;;3.07;2.10;;;27.50;77.80;;;;;;5112860;28;20492;-90
2021/09/05 09:05:42;;;;;;;3.23;2.33;;;27.40;79.00;;;;;;5113269;28;20500;-89
2021/09/05 09:08:13;;;;;;;3.70;2.40;;;27.80;80.10;;;;;;5093505;28;20184;-85
2021/09/05 09:10:50;;;;;;;4.03;2.60;;;27.70;74.30;;;;;;5091962;28;20496;-83
2021/09/05 09:13:25;;;;;;;3.13;2.47;;;27.50;80.50;;;;;;5089803;28;20414;-84
2021/09/05 09:15:53;;;;;;;2.90;1.73;;;28.00;76.60;;;;;;5092459;28;20428;-86
2021/09/05 09:18:29;;;;;;;3.93;1.67;;;28.10;76.90;;;;;;5092507;28;20771;-88
2021/09/05 09:20:57;;;;;;;10.90;2.70;;;27.80;76.10;;;;;;5091197;28;20469;-90
2021/09/05 09:23:25;;;;;;;3.67;2.20;;;27.90;79.00;;;;;;5092389;28;20838;-86
2021/09/05 09:26:04;;;;;;;3.00;2.23;;;27.70;80.60;;;;;;5091999;28;20410;-86
2021/09/05 09:28:35;;;;;;;4.97;2.93;;;27.80;74.50;;;;;;5092871;28;20414;-85
2021/09/05 09:31:43;;;;;;;4.43;2.43;;;28.10;79.80;;;;;;5091485;28;20472;-87
2021/09/05 09:34:20;;;;;;;3.50;2.03;;;27.50;76.50;;;;;;5075616;28;20509;-86
2021/09/05 09:36:46;;;;;;;3.80;2.30;;;28.20;77.50;;;;;;5092612;28;20422;-85
2021/09/05 09:39:15;;;;;;;3.50;2.73;;;27.70;73.80;;;;;;5092483;28;20776;-85
2021/09/05 09:41:41;;;;;;;3.80;2.50;;;27.90;75.00;;;;;;5092275;28;20254;-88
2021/09/05 09:44:13;;;;;;;3.83;2.07;;;27.20;74.40;;;;;;5092306;28;20490;-90
2021/09/05 09:46:40;;;;;;;4.73;2.57;;;28.20;76.20;;;;;;5091385;28;20513;-88
2021/09/05 09:49:13;;;;;;;4.37;2.53;;;27.50;78.90;;;;;;5091188;28;20410;-87
2021/09/05 09:51:39;;;;;;;4.47;2.43;;;26.30;80.50;;;;;;5091496;28;20509;-86
2021/09/05 09:54:05;;;;;;;5.33;2.67;;;25.50;86.30;;;;;;5092147;28;20409;-86
2021/09/05 09:56:31;;;;;;;3.30;1.80;;;26.20;86.50;;;;;;5091681;28;20414;-87
2021/09/05 09:59:03;;;;;;;2.70;2.17;;;25.70;87.20;;;;;;5092222;28;20172;-86
2021/09/05 10:01:30;;;;;;;3.90;1.97;;;24.90;93.70;;;;;;5092104;28;20929;-87
2021/09/05 10:03:58;;;;;;;6.13;2.70;;;24.60;98.10;;;;;;5092369;28;20486;-87
2021/09/05 10:06:26;;;;;;;3.53;2.23;;;26.20;92.10;;;;;;5099250;28;20445;-88
2021/09/05 10:08:55;;;;;;;5.70;2.70;;;25.70;95.00;;;;;;5112691;28;20410;-86
2021/09/05 10:11:22;;;;;;;7.10;3.13;;;26.80;91.10;;;;;;5112209;28;20480;-87
2021/09/05 10:13:49;;;;;;;5.40;3.10;;;26.70;85.60;;;;;;5112536;28;20802;-86
2021/09/05 10:16:17;;;;;;;2.90;2.50;;;28.00;82.80;;;;;;5112549;28;20409;-87
2021/09/05 10:18:49;;;;;;;3.20;2.30;;;28.00;82.40;;;;;;5111271;28;20405;-87
2021/09/05 10:21:17;;;;;;;3.53;2.33;;;28.30;83.80;;;;;;5112339;28;20473;-87
2021/09/05 10:23:52;;;;;;;3.77;2.47;;;28.20;78.20;;;;;;5112385;28;20753;-88
2021/09/05 10:26:18;;;;;;;3.90;2.57;;;26.70;84.50;;;;;;5110585;28;20929;-87
2021/09/05 10:28:51;;;;;;;5.20;2.43;;;27.90;88.10;;;;;;5112438;28;20405;-88
2021/09/05 10:31:25;;;;;;;4.13;3.00;;;27.90;83.90;;;;;;5110957;28;20421;-88
2021/09/05 10:33:51;;;;;;;6.93;2.60;;;27.70;87.60;;;;;;5109307;28;20413;-88
2021/09/05 10:36:25;;;;;;;3.70;2.00;;;27.70;90.30;;;;;;5095587;28;20419;-87
2021/09/05 10:38:52;;;;;;;6.53;3.03;;;27.90;90.70;;;;;;5095713;28;20342;-86
2021/09/05 10:41:21;;;;;;;4.40;2.73;;;27.00;88.90;;;;;;5093656;28;20870;-85
2021/09/05 10:43:58;;;;;;;3.37;2.53;;;26.50;91.60;;;;;;5096013;28;20399;-85
2021/09/05 10:46:32;;;;;;;4.33;2.93;;;26.60;92.30;;;;;;5096554;28;20432;-85
2021/09/05 10:49:00;;;;;;;4.80;2.80;;;25.20;90.70;;;;;;5097043;28;20959;-87
2021/09/05 10:51:28;;;;;;;3.73;3.40;;;26.00;96.70;;;;;;5106311;28;20414;-86
2021/09/05 10:54:01;;;;;;;3.47;3.17;;;25.20;92.30;;;;;;5102334;28;20402;-87
2021/09/05 10:56:28;;;;;;;5.17;3.10;;;25.60;95.50;;;;;;5101697;28;20419;-88
2021/09/05 10:58:55;;;;;;;4.83;3.13;;;26.00;92.40;;;;;;5113132;28;20988;-87
2021/09/05 11:01:22;;;;;;;3.73;3.07;;;25.60;95.20;;;;;;5125803;28;20464;-87
2021/09/05 11:04:10;;;;;;;6.60;3.37;;;25.60;93.40;;;;;;5122253;28;20401;-90
2021/09/05 11:07:06;;;;;;;4.13;3.50;;;25.90;97.70;;;;;;5111959;28;20412;-90
2021/09/05 11:09:31;;;;;;;3.90;2.63;;;26.40;93.30;;;;;;5071571;28;20471;-89
2021/09/05 11:12:25;;;;;;;4.33;2.30;;;26.50;91.10;;;;;;5074727;28;20478;-87
2021/09/05 11:14:51;;;;;;;4.40;3.43;;;26.80;93.40;;;;;;5073834;28;20256;-87
2021/09/05 11:17:27;;;;;;;3.70;2.97;;;26.90;90.00;;;;;;5073762;28;20498;-90
2021/09/05 11:20:06;;;;;;;3.43;2.70;;;27.40;91.50;;;;;;5083764;28;20680;-89
2021/09/05 11:22:41;;;;;;;4.70;3.10;;;27.00;90.90;;;;;;5094698;28;20525;-88
2021/09/05 11:25:21;;;;;;;4.50;2.70;;;27.10;89.40;;;;;;5094868;28;20402;-88
2021/09/05 11:27:59;;;;;;;4.33;3.47;;;25.60;93.40;;;;;;5094355;28;20413;-88
2021/09/05 11:30:28;;;;;;;3.37;2.73;;;26.40;93.30;;;;;;5093229;28;20414;-90
2021/09/05 11:33:00;;;;;;;4.60;3.30;;;26.20;91.20;;;;;;5076870;28;21022;-90
2021/09/05 11:35:26;;;;;;;6.40;2.90;;;26.40;87.40;;;;;;5094480;28;20411;-88
2021/09/05 11:37:55;;;;;;;3.50;3.20;;;26.10;86.90;;;;;;5094350;28;20410;-88
2021/09/05 11:40:21;;;;;;;3.13;2.80;;;26.40;89.40;;;;;;5092964;28;20462;-88
2021/09/05 11:42:52;;;;;;;3.70;3.40;;;26.80;86.60;;;;;;5093862;28;20548;-88
2021/09/05 11:45:20;;;;;;;3.57;2.00;;;26.10;88.00;;;;;;5093770;28;20520;-89
2021/09/05 11:47:47;;;;;;;5.60;3.10;;;26.60;91.10;;;;;;5094065;28;20424;-87
2021/09/05 11:50:14;;;;;;;4.03;2.80;;;26.60;86.30;;;;;;5094017;28;20422;-88
2021/09/05 11:52:41;;;;;;;3.57;2.63;;;26.80;86.20;;;;;;5094041;28;20418;-87
2021/09/05 11:55:15;;;;;;;4.77;2.53;;;26.50;87.10;;;;;;5093892;28;20413;-87
2021/09/05 11:58:09;;;;;;;2.67;2.43;;;26.20;90.70;;;;;;5097949;28;20472;-88
2021/09/05 12:00:40;;;;;;;5.17;2.80;;;26.80;90.70;;;;;;5100407;27;20821;-87
2021/09/05 12:03:08;;;;;;;4.10;2.90;;;26.80;89.70;;;;;;5113053;28;20423;-88
2021/09/05 12:05:35;;;;;;;3.40;2.97;;;26.50;91.10;;;;;;5114643;28;20812;-88
2021/09/05 12:08:05;;;;;;;5.37;4.03;;;26.30;87.20;;;;;;5114274;28;20516;-87
2021/09/05 12:10:33;;;;;;;3.63;2.90;;;26.60;89.90;;;;;;5112478;28;20459;-88
2021/09/05 12:13:07;;;;;;;4.20;2.90;;;26.70;85.20;;;;;;5114528;28;20414;-87
2021/09/05 12:15:37;;;;;;;4.53;3.03;;;27.20;86.10;;;;;;5112916;28;20496;-87
2021/09/05 12:18:20;;;;;;;3.77;3.30;;;27.40;84.80;;;;;;5112793;28;20497;-87
2021/09/05 12:20:56;;;;;;;3.20;2.70;;;27.80;80.80;;;;;;5113840;28;20465;-87
2021/09/05 12:23:46;;;;;;;4.23;3.23;;;27.20;81.60;;;;;;5112455;28;20421;-88
2021/09/05 12:26:17;;;;;;;6.23;2.83;;;27.60;84.60;;;;;;5113746;28;20414;-88
2021/09/05 12:28:59;;;;;;;3.37;3.07;;;27.40;75.70;;;;;;5113992;28;20940;-87
2021/09/05 12:32:01;;;;;;;5.50;3.30;;;27.60;78.60;;;;;;5112776;28;20425;-88
2021/09/05 12:34:58;;;;;;;3.90;2.67;;;28.40;76.40;;;;;;5080753;28;20500;-87
2021/09/05 12:37:25;;;;;;;4.40;3.07;;;28.30;78.70;;;;;;5100841;28;20929;-87
2021/09/05 12:39:51;;;;;;;4.97;3.77;;;27.90;73.50;;;;;;5113411;28;20413;-87
2021/09/05 12:42:19;;;;;;;3.80;2.80;;;28.40;77.80;;;;;;5111707;28;20465;-87
2021/09/05 12:44:52;;;;;;;4.40;3.40;;;27.10;76.00;;;;;;5113485;28;20413;-86
2021/09/05 12:47:25;;;;;;;4.20;3.80;;;28.00;76.50;;;;;;5111932;28;20418;-88